Time;durP1;ratioP1;P1;durP2;ratioP2;P2;SDS_P1;SDS_P2;PMS_P1;PMS_P2;Temp;Humidity;BMP_temperature;BMP_pressure;BME280_temperature;BME280_humidity;BME280_pressure;Samples;Min_cycle;Max_cycle;Signal;HPM_P1;HPM_P2
2021/01/02 00:00:52;;;;;;;18.20;9.88;;;;;;;2.92;87.65;99301.53;4991661;28;20050;-72
2021/01/02 00:03:32;;;;;;;17.67;9.73;;;;;;;2.87;88.02;99309.00;4986486;28;20081;-68
2021/01/02 00:06:08;;;;;;;17.75;9.65;;;;;;;2.79;87.85;99302.06;4991138;28;20070;-68
2021/01/02 00:08:38;;;;;;;19.65;10.27;;;;;;;2.86;87.59;99316.50;4988471;28;20043;-68
2021/01/02 00:11:25;;;;;;;18.90;9.32;;;;;;;2.88;88.13;99312.38;4987711;28;22550;-68
2021/01/02 00:14:03;;;;;;;19.90;10.80;;;;;;;2.87;87.41;99308.13;4970200;28;20077;-68
2021/01/02 00:16:55;;;;;;;23.27;11.63;;;;;;;2.88;87.52;99305.63;4977939;28;20090;-69
2021/01/02 00:19:36;;;;;;;21.13;10.50;;;;;;;2.86;87.92;99311.47;4991971;28;20057;-69
2021/01/02 00:22:10;;;;;;;22.42;11.38;;;;;;;2.87;87.86;99313.19;4986636;28;20042;-68
2021/01/02 00:24:43;;;;;;;21.35;12.63;;;;;;;2.84;87.56;99318.13;4976621;28;20501;-69
2021/01/02 00:27:23;;;;;;;19.38;10.98;;;;;;;2.84;87.14;99313.09;4986846;28;20042;-68
2021/01/02 00:29:56;;;;;;;21.52;10.60;;;;;;;2.87;87.76;99318.22;4993660;28;20046;-68
2021/01/02 00:32:38;;;;;;;22.83;11.65;;;;;;;2.86;87.62;99316.50;4986330;28;20050;-69
2021/01/02 00:35:10;;;;;;;23.58;12.27;;;;;;;2.69;87.52;99299.31;4991700;28;20038;-69
2021/01/02 00:37:41;;;;;;;21.50;11.75;;;;;;;2.85;88.06;99324.91;4979164;28;20066;-68
2021/01/02 00:40:13;;;;;;;22.40;11.43;;;;;;;2.80;88.01;99326.44;4981791;28;20073;-68
2021/01/02 00:42:43;;;;;;;20.60;10.93;;;;;;;2.70;87.19;99328.75;4993741;28;20145;-68
2021/01/02 00:45:13;;;;;;;21.15;11.43;;;;;;;2.68;87.72;99327.88;4993714;28;20141;-68
2021/01/02 00:47:43;;;;;;;20.30;10.68;;;;;;;2.52;87.48;99313.16;4983195;28;20046;-68
2021/01/02 00:50:13;;;;;;;20.35;10.43;;;;;;;2.41;87.11;99332.19;4990056;28;20057;-68
2021/01/02 00:52:47;;;;;;;;;;;;;;;2.36;87.79;99328.72;4989896;28;20048;-68
2021/01/02 00:55:32;;;;;;;21.55;10.30;;;;;;;2.24;87.17;99330.91;4991903;28;20037;-68
2021/01/02 00:58:07;;;;;;;20.77;11.35;;;;;;;2.29;87.73;99331.88;4995144;28;20378;-68
2021/01/02 01:00:42;;;;;;;21.40;10.98;;;;;;;2.18;88.18;99328.25;4993803;28;20057;-68
2021/01/02 01:03:30;;;;;;;21.50;10.10;;;;;;;2.15;87.68;99339.88;4991515;28;20079;-68
2021/01/02 01:06:03;;;;;;;20.33;10.35;;;;;;;2.01;88.11;99344.53;4987169;28;20076;-68
2021/01/02 01:08:33;;;;;;;22.75;10.38;;;;;;;1.92;87.49;99346.81;4989071;28;20050;-68
2021/01/02 01:11:09;;;;;;;21.92;10.88;;;;;;;1.91;88.25;99353.50;4995658;28;20224;-68
2021/01/02 01:13:38;;;;;;;18.70;10.80;;;;;;;1.90;88.55;99350.94;4992622;28;20081;-68
2021/01/02 01:16:06;;;;;;;21.52;10.15;;;;;;;1.81;88.37;99355.69;4990595;28;20046;-67
2021/01/02 01:18:51;;;;;;;21.38;11.27;;;;;;;1.78;88.10;99356.47;4977854;28;20083;-67
2021/01/02 01:21:20;;;;;;;21.73;10.32;;;;;;;1.83;88.67;99351.56;4996283;28;20147;-68
2021/01/02 01:24:03;;;;;;;21.77;11.05;;;;;;;1.77;88.14;99334.66;4993136;28;20043;-67
2021/01/02 01:26:42;;;;;;;21.67;10.98;;;;;;;1.84;88.25;99355.78;4989822;28;20508;-67
2021/01/02 01:29:21;;;;;;;22.58;10.07;;;;;;;1.77;88.71;99361.47;4995443;28;20051;-67
2021/01/02 01:31:56;;;;;;;22.17;11.32;;;;;;;1.74;88.54;99358.84;4992252;28;20521;-67
2021/01/02 01:34:28;;;;;;;22.15;11.52;;;;;;;1.71;88.43;99358.75;4994812;28;20133;-67
2021/01/02 01:36:55;;;;;;;28.65;13.65;;;;;;;1.74;88.77;99358.84;4991939;28;20049;-67
2021/01/02 01:39:25;;;;;;;21.27;11.43;;;;;;;1.70;88.33;99347.00;4991571;28;20051;-67
2021/01/02 01:41:58;;;;;;;16.88;9.75;;;;;;;1.74;89.00;99366.41;4980837;28;20292;-67
2021/01/02 01:44:44;;;;;;;20.45;9.55;;;;;;;1.72;88.95;99365.50;4994119;28;20050;-67
2021/01/02 01:47:15;;;;;;;19.17;9.75;;;;;;;1.63;88.87;99360.22;4993357;28;20055;-67
2021/01/02 01:49:48;;;;;;;22.00;10.60;;;;;;;1.51;88.45;99364.88;4996387;28;20051;-67
2021/01/02 01:52:43;;;;;;;21.42;10.85;;;;;;;1.54;89.02;99367.47;4978339;28;20404;-67
2021/01/02 01:55:18;;;;;;;24.15;11.70;;;;;;;1.69;88.90;99372.97;4990580;28;20117;-67
2021/01/02 01:57:48;;;;;;;24.00;11.73;;;;;;;1.66;88.55;99360.28;4976765;28;20137;-67
2021/01/02 02:00:17;;;;;;;20.88;11.32;;;;;;;1.63;89.11;99371.09;4976758;28;20555;-67
2021/01/02 02:02:50;;;;;;;20.13;11.05;;;;;;;1.65;88.53;99368.66;4986738;28;20051;-67
2021/01/02 02:05:20;;;;;;;19.88;10.18;;;;;;;1.37;88.89;99341.00;4985991;28;20055;-71
2021/01/02 02:07:59;;;;;;;21.70;11.38;;;;;;;1.44;88.68;99368.84;4987790;28;20042;-67
2021/01/02 02:10:29;;;;;;;26.52;11.30;;;;;;;1.57;89.44;99367.56;4989262;28;20129;-67
2021/01/02 02:12:58;;;;;;;20.02;11.18;;;;;;;1.49;89.49;99366.50;4994947;28;20047;-67
2021/01/02 02:15:27;;;;;;;24.38;11.70;;;;;;;1.50;89.03;99368.19;4995849;28;20381;-68
2021/01/02 02:18:05;;;;;;;22.33;11.10;;;;;;;1.56;89.63;99383.47;4989874;28;20046;-68
2021/01/02 02:20:34;;;;;;;23.92;11.13;;;;;;;1.60;89.66;99381.09;4995140;28;20057;-70
2021/01/02 02:23:08;;;;;;;24.05;11.10;;;;;;;1.65;88.89;99376.19;4985688;28;20394;-68
2021/01/02 02:25:40;;;;;;;23.88;11.73;;;;;;;1.67;89.15;99375.44;4994006;28;20520;-69
2021/01/02 02:28:14;;;;;;;24.27;11.77;;;;;;;1.65;89.30;99383.75;4992627;28;20054;-68
2021/01/02 02:30:46;;;;;;;22.45;10.80;;;;;;;1.70;89.01;99382.22;4978801;28;20101;-68
2021/01/02 02:33:22;;;;;;;19.50;10.77;;;;;;;1.65;89.90;99383.75;4988679;28;20047;-68
2021/01/02 02:35:50;;;;;;;20.45;11.00;;;;;;;1.62;89.33;99378.63;4977226;28;20061;-70
2021/01/02 02:38:19;;;;;;;23.75;10.98;;;;;;;1.65;89.19;99373.69;4991984;28;20054;-69
2021/01/02 02:40:47;;;;;;;21.55;11.07;;;;;;;1.72;89.28;99370.53;4990119;28;20069;-69
2021/01/02 02:43:18;;;;;;;22.35;11.23;;;;;;;1.77;89.95;99371.53;4993778;28;20043;-70
2021/01/02 02:45:49;;;;;;;18.92;10.52;;;;;;;1.77;89.31;99369.00;4983408;28;20058;-70
2021/01/02 02:48:18;;;;;;;19.30;10.73;;;;;;;1.78;89.24;99350.56;4993637;28;20049;-70
2021/01/02 02:50:53;;;;;;;17.90;9.85;;;;;;;1.78;89.17;99366.53;4992427;28;20046;-70
2021/01/02 02:53:22;;;;;;;22.40;10.65;;;;;;;1.84;90.05;99360.81;4985871;28;20404;-70
2021/01/02 02:55:49;;;;;;;21.38;10.55;;;;;;;1.79;89.89;99377.44;4982384;28;20378;-69
2021/01/02 02:58:17;;;;;;;21.63;10.40;;;;;;;1.80;90.16;99369.94;4992610;28;20054;-69
2021/01/02 03:00:45;;;;;;;22.40;11.02;;;;;;;1.94;89.81;99382.94;4993472;28;20038;-69
2021/01/02 03:03:13;;;;;;;20.45;10.73;;;;;;;1.98;89.81;99374.66;4992659;28;20393;-69
2021/01/02 03:05:41;;;;;;;21.45;10.57;;;;;;;1.93;90.07;99361.09;4994242;28;20035;-69
2021/01/02 03:08:09;;;;;;;19.60;9.57;;;;;;;1.87;90.05;99355.91;4988888;28;20074;-70
2021/01/02 03:10:37;;;;;;;18.85;9.88;;;;;;;1.75;90.02;99340.44;4981289;28;20043;-70
2021/01/02 03:13:05;;;;;;;20.02;10.77;;;;;;;1.88;90.11;99372.66;4994736;28;20038;-70
2021/01/02 03:15:38;;;;;;;23.65;10.38;;;;;;;1.88;90.19;99367.63;4992452;28;20042;-71
2021/01/02 03:18:07;;;;;;;23.67;10.95;;;;;;;1.61;89.76;99329.16;4979894;28;20042;-69
2021/01/02 03:20:35;;;;;;;21.80;10.23;;;;;;;1.87;89.60;99371.00;4975301;28;20057;-69
2021/01/02 03:23:03;;;;;;;19.95;10.68;;;;;;;1.84;90.09;99370.88;4989401;28;20074;-69
2021/01/02 03:25:31;;;;;;;17.27;10.02;;;;;;;1.60;89.50;99345.03;4984629;28;20054;-69
2021/01/02 03:30:43;;;;;;;18.90;10.07;;;;;;;1.81;89.52;99359.06;4931708;29;20066;-69
2021/01/02 03:33:10;;;;;;;18.40;9.85;;;;;;;1.79;89.53;99365.72;4929211;29;20040;-69
2021/01/02 03:35:38;;;;;;;19.67;9.98;;;;;;;1.77;90.03;99358.94;4919625;29;20072;-69
2021/01/02 03:38:05;;;;;;;18.30;9.20;;;;;;;1.75;89.90;99375.66;4927346;29;20048;-69
2021/01/02 03:40:33;;;;;;;21.92;10.27;;;;;;;1.73;89.35;99372.22;4930448;29;20055;-69
2021/01/02 03:43:03;;;;;;;20.92;10.00;;;;;;;1.72;90.34;99376.44;4925157;29;20048;-69
2021/01/02 03:45:30;;;;;;;17.90;9.30;;;;;;;1.76;90.18;99374.84;4933193;29;20295;-69
2021/01/02 03:47:58;;;;;;;21.15;10.20;;;;;;;1.81;90.43;99380.84;4921583;29;20040;-69
2021/01/02 03:50:26;;;;;;;18.25;9.30;;;;;;;1.86;89.86;99379.31;4915864;29;20079;-69
2021/01/02 03:52:53;;;;;;;19.77;9.35;;;;;;;1.85;89.80;99377.59;4915276;29;20063;-69
2021/01/02 03:55:21;;;;;;;20.13;9.50;;;;;;;1.80;89.51;99389.22;4925707;29;20148;-69
2021/01/02 03:57:48;;;;;;;18.25;9.07;;;;;;;1.84;90.27;99380.94;4926517;29;20044;-69
2021/01/02 04:00:18;;;;;;;17.63;8.55;;;;;;;1.79;89.49;99383.34;4927682;29;20051;-73
2021/01/02 04:02:47;;;;;;;17.45;8.75;;;;;;;1.79;89.57;99374.94;4922807;29;20052;-69
2021/01/02 04:05:14;;;;;;;20.15;9.98;;;;;;;1.84;89.69;99375.91;4930327;29;20052;-69
2021/01/02 04:07:42;;;;;;;19.02;9.80;;;;;;;1.86;89.31;99369.25;4949565;28;20050;-71
2021/01/02 04:10:10;;;;;;;18.98;8.95;;;;;;;1.82;90.17;99372.50;4987383;28;20493;-70
2021/01/02 04:12:39;;;;;;;19.60;9.50;;;;;;;1.85;89.80;99377.59;4990042;28;20042;-70
2021/01/02 04:15:08;;;;;;;18.42;9.15;;;;;;;1.86;90.40;99374.28;4994557;28;20050;-70
2021/01/02 04:17:36;;;;;;;21.25;9.90;;;;;;;1.88;90.06;99375.19;4992615;28;20509;-70
2021/01/02 04:20:05;;;;;;;18.80;9.57;;;;;;;1.90;89.49;99376.09;4992740;28;20501;-70
2021/01/02 04:22:32;;;;;;;21.65;9.98;;;;;;;1.95;89.96;99374.56;4982090;28;20097;-70
2021/01/02 04:25:00;;;;;;;19.38;9.25;;;;;;;1.94;90.31;99375.38;4980738;28;20046;-70
2021/01/02 04:27:30;;;;;;;;;;;;;;;2.00;90.37;99378.06;4989029;28;20061;-70
2021/01/02 04:29:57;;;;;;;17.30;8.50;;;;;;;2.02;90.21;99373.91;4987660;28;19922;-70
2021/01/02 04:32:26;;;;;;;15.20;8.85;;;;;;;2.04;90.35;99374.81;4996197;28;20065;-69
2021/01/02 04:34:55;;;;;;;21.02;10.13;;;;;;;1.75;90.13;99321.16;4995982;28;20047;-69
2021/01/02 04:37:27;;;;;;;18.27;9.15;;;;;;;2.13;90.45;99369.19;4991797;28;20050;-69
2021/01/02 04:39:55;;;;;;;18.90;9.48;;;;;;;2.16;89.83;99376.84;4993297;28;20054;-69
2021/01/02 04:42:24;;;;;;;20.75;9.40;;;;;;;2.15;90.17;99378.50;4980220;28;20071;-69
2021/01/02 04:44:53;;;;;;;16.73;9.10;;;;;;;2.11;89.85;99365.78;4977782;28;20043;-69
2021/01/02 04:47:22;;;;;;;18.08;9.45;;;;;;;2.16;89.41;99385.22;4989220;28;20500;-69
2021/01/02 04:49:51;;;;;;;18.88;9.10;;;;;;;2.20;89.75;99401.25;4996713;28;20438;-68
2021/01/02 04:52:20;;;;;;;19.65;8.98;;;;;;;2.23;90.10;99399.66;4994181;28;20057;-68
2021/01/02 04:54:50;;;;;;;15.90;8.68;;;;;;;2.22;89.75;99400.50;4984742;28;20069;-68
2021/01/02 04:57:19;;;;;;;18.98;9.55;;;;;;;2.29;89.43;99412.44;4990084;28;20049;-68
2021/01/02 04:59:49;;;;;;;17.77;9.10;;;;;;;2.35;89.14;99427.69;4997504;28;20054;-68
2021/01/02 05:02:19;;;;;;;19.92;8.90;;;;;;;2.50;89.30;99425.59;4981128;28;20101;-69
2021/01/02 05:04:50;;;;;;;19.48;9.35;;;;;;;2.51;89.57;99439.91;4977906;28;20105;-69
2021/01/02 05:07:34;;;;;;;17.90;8.73;;;;;;;2.52;89.74;99439.09;4984807;28;20049;-68
2021/01/02 05:10:03;;;;;;;19.98;9.07;;;;;;;2.52;89.95;99441.59;4952804;29;20101;-68
2021/01/02 05:12:33;;;;;;;19.13;9.00;;;;;;;2.56;89.61;99428.31;4937926;29;20051;-69
2021/01/02 05:15:08;;;;;;;17.65;8.32;;;;;;;2.50;89.95;99438.19;4937140;29;20051;-69
2021/01/02 05:17:37;;;;;;;18.27;8.73;;;;;;;2.54;89.25;99429.91;4955133;29;20107;-68
2021/01/02 05:20:07;;;;;;;18.63;9.13;;;;;;;2.57;89.13;99440.06;4955014;29;20054;-68
2021/01/02 05:22:36;;;;;;;18.63;8.93;;;;;;;2.58;90.05;99435.88;4948703;29;20058;-69
2021/01/02 05:25:07;;;;;;;;;;;;;;;2.58;89.48;99436.75;4954339;29;20148;-68
2021/01/02 05:27:36;;;;;;;15.70;8.45;;;;;;;2.45;89.21;99419.59;4955239;29;19929;-68
2021/01/02 05:30:09;;;;;;;19.17;9.73;;;;;;;2.59;89.23;99432.56;4949464;28;20706;-68
2021/01/02 05:32:54;;;;;;;22.63;8.57;;;;;;;2.56;89.17;99433.34;4955897;29;20051;-68
2021/01/02 05:35:22;;;;;;;17.08;9.40;;;;;;;2.54;89.42;99427.38;4954721;29;20046;-69
2021/01/02 05:37:52;;;;;;;19.13;9.02;;;;;;;2.54;89.26;99427.38;4953785;28;20043;-68
2021/01/02 05:40:26;;;;;;;19.83;9.65;;;;;;;2.52;89.05;99431.53;4953587;28;20051;-68
2021/01/02 05:42:57;;;;;;;19.73;9.90;;;;;;;2.56;89.08;99423.28;4954303;28;20048;-68
2021/01/02 05:45:28;;;;;;;23.60;10.55;;;;;;;2.58;89.81;99430.84;4955058;29;20130;-68
2021/01/02 05:47:57;;;;;;;20.52;10.27;;;;;;;2.58;89.96;99421.63;4986396;28;20396;-68
2021/01/02 05:50:27;;;;;;;19.73;9.93;;;;;;;2.58;89.72;99431.72;4983564;28;20488;-68
2021/01/02 05:52:57;;;;;;;17.83;9.90;;;;;;;2.58;89.17;99430.84;4982370;28;20046;-68
2021/01/02 05:55:29;;;;;;;19.63;10.50;;;;;;;2.59;89.72;99432.56;4987786;28;20126;-68
2021/01/02 05:58:14;;;;;;;19.95;10.48;;;;;;;2.58;89.98;99426.69;4990669;28;20442;-68
2021/01/02 06:00:45;;;;;;;18.77;9.35;;;;;;;2.56;89.72;99418.22;4976619;28;20441;-69
2021/01/02 06:03:27;;;;;;;17.85;9.38;;;;;;;2.61;89.86;99419.22;4976679;28;20101;-68
2021/01/02 06:05:58;;;;;;;19.38;9.80;;;;;;;2.36;89.73;99369.00;4981146;28;20393;-69
2021/01/02 06:08:30;;;;;;;17.55;9.70;;;;;;;2.66;89.78;99404.22;4980137;28;20105;-68
2021/01/02 06:11:01;;;;;;;20.40;10.25;;;;;;;2.67;89.51;99414.31;4992096;28;20050;-68
2021/01/02 06:13:30;;;;;;;19.10;10.57;;;;;;;2.68;89.92;99413.50;4992862;28;20049;-72
2021/01/02 06:15:59;;;;;;;17.50;8.80;;;;;;;2.68;90.02;99408.47;4987130;28;20567;-68
2021/01/02 06:18:29;;;;;;;21.70;11.63;;;;;;;2.67;89.63;99416.84;4990970;28;20562;-68
2021/01/02 06:20:57;;;;;;;24.90;11.82;;;;;;;2.65;90.03;99418.47;4984935;28;20375;-69
2021/01/02 06:23:26;;;;;;;19.65;10.68;;;;;;;2.65;90.47;99420.97;4993734;28;20046;-68
2021/01/02 06:25:56;;;;;;;21.70;10.70;;;;;;;2.60;90.51;99427.56;4993837;28;20456;-68
2021/01/02 06:28:26;;;;;;;;;;;;;;;2.63;90.26;99424.28;4994933;28;20053;-68
2021/01/02 06:30:58;;;;;;;21.85;10.75;;;;;;;2.64;89.77;99425.97;4990117;28;20336;-68
2021/01/02 06:33:27;;;;;;;17.70;9.85;;;;;;;2.61;90.48;99429.28;4979329;28;20054;-69
2021/01/02 06:35:56;;;;;;;17.60;9.95;;;;;;;2.62;90.11;99433.50;4991506;28;20415;-68
2021/01/02 06:38:25;;;;;;;22.83;10.68;;;;;;;2.64;90.10;99426.81;4995211;28;20050;-68
2021/01/02 06:40:54;;;;;;;20.63;10.45;;;;;;;2.61;89.73;99421.72;4983322;28;20062;-68
2021/01/02 06:43:25;;;;;;;22.45;11.07;;;;;;;2.68;90.45;99427.78;4995248;28;20042;-67
2021/01/02 06:45:58;;;;;;;19.30;10.15;;;;;;;2.70;90.46;99437.06;4989469;28;20484;-68
2021/01/02 06:48:35;;;;;;;20.70;11.45;;;;;;;2.77;90.17;99422.09;4991178;28;20050;-68
2021/01/02 06:51:25;;;;;;;22.67;11.13;;;;;;;2.78;90.17;99431.38;4993642;28;20066;-68
2021/01/02 06:53:53;;;;;;;20.90;10.93;;;;;;;2.73;89.85;99422.00;4987760;28;20050;-69
2021/01/02 06:56:31;;;;;;;19.55;11.60;;;;;;;2.53;89.85;99364.41;4992352;28;20050;-69
2021/01/02 06:59:00;;;;;;;22.48;11.13;;;;;;;2.88;90.55;99418.22;4975622;28;20058;-69
2021/01/02 07:01:33;;;;;;;18.58;10.75;;;;;;;2.87;90.20;99414.84;4982304;28;20041;-69
2021/01/02 07:04:01;;;;;;;21.48;11.02;;;;;;;2.77;90.24;99397.78;4992310;28;20055;-69
2021/01/02 07:06:30;;;;;;;21.20;10.98;;;;;;;2.90;90.80;99414.06;4991133;28;20054;-69
2021/01/02 07:08:59;;;;;;;;;;;;;;;2.97;90.46;99410.88;4989652;28;20378;-69
2021/01/02 07:11:30;;;;;;;18.65;10.00;;;;;;;2.86;90.29;99398.00;4990746;28;20295;-68
2021/01/02 07:14:04;;;;;;;21.35;10.25;;;;;;;2.98;90.25;99427.69;4991137;28;20061;-69
2021/01/02 07:16:32;;;;;;;19.60;10.27;;;;;;;2.96;90.53;99434.34;4973824;28;20039;-68
2021/01/02 07:19:00;;;;;;;20.13;10.43;;;;;;;2.93;89.86;99436.81;4976843;28;20400;-69
2021/01/02 07:21:33;;;;;;;19.88;10.48;;;;;;;2.96;90.22;99436.88;4978478;28;20046;-69
2021/01/02 07:24:06;;;;;;;21.75;10.10;;;;;;;2.93;90.11;99430.09;4987251;28;20043;-69
2021/01/02 07:26:40;;;;;;;21.23;9.32;;;;;;;2.96;90.36;99431.84;4994705;28;20042;-68
2021/01/02 07:29:18;;;;;;;20.35;9.07;;;;;;;2.99;90.72;99442.00;4994226;28;20101;-67
2021/01/02 07:31:47;;;;;;;21.88;9.52;;;;;;;3.00;90.58;99442.03;4993550;28;20054;-69
2021/01/02 07:34:17;;;;;;;19.45;9.55;;;;;;;3.03;90.48;99436.22;4991713;28;20042;-70
2021/01/02 07:36:45;;;;;;;21.27;10.13;;;;;;;3.05;90.32;99444.66;4989044;28;20583;-70
2021/01/02 07:39:16;;;;;;;21.55;11.00;;;;;;;3.06;89.82;99444.72;4992808;28;20046;-69
2021/01/02 07:41:43;;;;;;;19.33;11.45;;;;;;;3.09;90.81;99447.31;4990250;28;20149;-69
2021/01/02 07:44:15;;;;;;;21.90;11.63;;;;;;;3.12;90.65;99454.13;4993630;28;20038;-69
2021/01/02 07:46:46;;;;;;;16.33;9.03;;;;;;;2.91;90.54;99416.59;4993711;28;20046;-69
2021/01/02 07:49:17;;;;;;;21.88;12.65;;;;;;;3.17;89.91;99455.06;4993720;28;20296;-70
2021/01/02 07:51:47;;;;;;;24.08;12.68;;;;;;;3.19;90.41;99458.50;4993392;28;20104;-70
2021/01/02 07:54:28;;;;;;;21.40;11.38;;;;;;;3.21;90.63;99456.84;4995512;28;20492;-70
2021/01/02 07:56:56;;;;;;;21.77;11.45;;;;;;;3.25;90.16;99462.00;4993741;28;20460;-70
2021/01/02 07:59:30;;;;;;;22.10;11.05;;;;;;;3.29;90.26;99457.88;4990671;28;20050;-70
2021/01/02 08:02:00;;;;;;;22.77;11.70;;;;;;;3.31;89.73;99469.72;4990039;28;20072;-70
2021/01/02 08:04:30;;;;;;;23.55;11.27;;;;;;;3.33;90.70;99470.63;4994920;28;20046;-70
2021/01/02 08:07:00;;;;;;;22.15;11.35;;;;;;;3.34;90.04;99467.28;4985665;28;20043;-70
2021/01/02 08:09:29;;;;;;;20.52;10.77;;;;;;;3.36;90.61;99472.34;4995411;28;20054;-70
2021/01/02 08:11:58;;;;;;;;;;;;;;;3.38;90.54;99470.72;4989725;28;20454;-69
2021/01/02 08:14:29;;;;;;;21.38;11.50;;;;;;;3.41;90.15;99469.94;4994136;28;19944;-70
2021/01/02 08:17:02;;;;;;;23.75;12.10;;;;;;;3.45;90.07;99466.69;4992386;28;20039;-70
2021/01/02 08:19:31;;;;;;;22.55;12.68;;;;;;;3.44;90.18;99458.25;4978311;28;20047;-70
2021/01/02 08:22:03;;;;;;;22.10;12.32;;;;;;;3.60;89.88;99467.88;4980981;28;20042;-70
2021/01/02 08:24:30;;;;;;;22.38;12.43;;;;;;;3.66;90.34;99463.00;4991200;28;20058;-70
2021/01/02 08:27:00;;;;;;;21.75;13.40;;;;;;;3.77;90.45;99476.69;4980212;28;20043;-70
2021/01/02 08:29:28;;;;;;;22.20;12.85;;;;;;;3.83;89.75;99481.91;4989051;28;20073;-70
2021/01/02 08:32:01;;;;;;;21.08;12.23;;;;;;;3.87;89.75;99488.72;4997096;28;20038;-70
2021/01/02 08:34:31;;;;;;;22.58;11.10;;;;;;;3.90;89.98;99498.88;4997621;28;20046;-70
2021/01/02 08:37:01;;;;;;;18.13;10.30;;;;;;;3.93;89.72;99503.16;4995037;28;20077;-70
2021/01/02 08:39:29;;;;;;;19.08;10.93;;;;;;;3.94;89.64;99498.13;4993337;28;20058;-70
2021/01/02 08:41:58;;;;;;;19.92;10.48;;;;;;;3.96;89.95;99498.16;4986741;28;20054;-70
2021/01/02 08:44:30;;;;;;;20.15;10.15;;;;;;;3.86;89.91;99471.84;4992673;28;20046;-70
2021/01/02 08:47:01;;;;;;;20.88;11.20;;;;;;;3.83;90.02;99461.69;4985111;28;20050;-71
2021/01/02 08:49:31;;;;;;;21.65;12.48;;;;;;;4.09;89.80;99500.13;4991408;28;20389;-70
2021/01/02 08:52:05;;;;;;;34.80;18.17;;;;;;;4.17;89.86;99502.81;4991791;28;20038;-70
2021/01/02 08:54:34;;;;;;;29.20;17.40;;;;;;;4.22;89.35;99502.13;4989201;28;20126;-70
2021/01/02 08:57:02;;;;;;;30.60;16.00;;;;;;;4.27;89.44;99499.69;4997332;28;20486;-70
2021/01/02 08:59:30;;;;;;;28.80;15.75;;;;;;;4.31;89.18;99503.97;4996969;28;20404;-71
2021/01/02 09:01:58;;;;;;;27.35;15.98;;;;;;;4.35;89.19;99503.22;4980683;28;20047;-70
2021/01/02 09:04:26;;;;;;;31.05;15.23;;;;;;;4.41;89.43;99500.81;4988206;28;20092;-70
2021/01/02 09:07:02;;;;;;;25.33;15.25;;;;;;;4.47;89.27;99494.22;4994912;28;20404;-70
2021/01/02 09:09:30;;;;;;;22.98;13.52;;;;;;;4.52;89.20;99482.53;4993799;28;20488;-69
2021/01/02 09:11:57;;;;;;;25.00;14.88;;;;;;;4.57;89.21;99491.06;4995586;28;20034;-70
2021/01/02 09:14:29;;;;;;;22.00;12.85;;;;;;;4.62;88.85;99489.47;4990801;28;20505;-69
2021/01/02 09:16:59;;;;;;;16.95;10.85;;;;;;;4.71;88.90;99483.72;4982731;28;20126;-69
2021/01/02 09:19:28;;;;;;;19.80;12.45;;;;;;;4.82;88.57;99484.81;4985604;28;20066;-69
2021/01/02 09:21:58;;;;;;;20.80;11.00;;;;;;;4.91;88.65;99484.13;4992114;28;20046;-71
2021/01/02 09:24:30;;;;;;;19.52;10.98;;;;;;;5.03;88.34;99471.69;4996513;28;20046;-69
2021/01/02 09:26:57;;;;;;;19.73;12.43;;;;;;;5.03;88.11;99467.50;4996403;28;20427;-69
2021/01/02 09:29:25;;;;;;;24.73;12.30;;;;;;;5.06;87.73;99471.75;4995135;28;20067;-70
2021/01/02 09:31:53;;;;;;;13.32;6.75;;;;;;;5.16;87.72;99474.47;4994348;28;20118;-70
2021/01/02 09:34:22;;;;;;;;;;;;;;;5.72;83.62;99475.38;4993167;28;20038;-70
2021/01/02 09:36:52;;;;;;;9.77;4.72;;;;;;;6.08;81.56;99470.03;4996557;28;19921;-70
2021/01/02 09:39:25;;;;;;;11.18;4.75;;;;;;;5.78;79.44;99370.81;4990041;28;20053;-70
2021/01/02 09:41:54;;;;;;;8.63;4.18;;;;;;;6.36;78.79;99468.72;4977065;28;20068;-70
2021/01/02 09:44:22;;;;;;;8.35;4.13;;;;;;;6.39;78.61;99464.53;4981669;28;20038;-71
2021/01/02 09:46:51;;;;;;;9.40;4.45;;;;;;;6.29;78.09;99444.97;4976839;28;20051;-70
2021/01/02 09:49:20;;;;;;;10.77;4.80;;;;;;;6.55;76.66;99466.41;4977146;28;20047;-69
2021/01/02 09:51:48;;;;;;;8.48;4.15;;;;;;;6.62;75.72;99473.25;4989230;28;20047;-70
2021/01/02 09:54:15;;;;;;;9.10;4.88;;;;;;;6.67;74.71;99466.53;4992921;28;20124;-69
2021/01/02 09:56:45;;;;;;;8.50;4.60;;;;;;;6.90;72.51;99463.41;4991552;28;20515;-70
2021/01/02 09:59:16;;;;;;;9.35;4.75;;;;;;;6.97;72.27;99470.25;4994692;28;20043;-69
2021/01/02 10:01:43;;;;;;;5.80;3.25;;;;;;;6.99;72.54;99466.03;4995957;28;20030;-70
2021/01/02 10:04:11;;;;;;;11.30;4.95;;;;;;;7.03;72.27;99466.06;4996074;28;20066;-69
2021/01/02 10:06:44;;;;;;;9.02;4.60;;;;;;;6.98;72.64;99459.28;4996016;28;20058;-69
2021/01/02 10:09:12;;;;;;;10.55;4.90;;;;;;;6.96;74.09;99468.56;4995867;28;20121;-70
2021/01/02 10:11:42;;;;;;;11.27;5.20;;;;;;;6.95;74.81;99461.78;4991957;28;20045;-69
2021/01/02 10:14:10;;;;;;;9.55;5.40;;;;;;;6.91;75.83;99460.88;4995191;28;20101;-70
2021/01/02 10:16:38;;;;;;;11.88;6.07;;;;;;;6.87;75.74;99463.38;4991060;28;20103;-70
2021/01/02 10:19:08;;;;;;;9.45;5.63;;;;;;;6.82;75.97;99455.72;4991593;28;20110;-73
2021/01/02 10:21:35;;;;;;;10.15;5.78;;;;;;;6.82;76.83;99462.47;4995308;28;20042;-70
2021/01/02 10:24:03;;;;;;;10.63;5.57;;;;;;;6.77;76.38;99464.13;4995204;28;20121;-71
2021/01/02 10:26:31;;;;;;;9.60;4.80;;;;;;;6.72;76.42;99457.28;4994856;28;20038;-70
2021/01/02 10:28:58;;;;;;;13.55;5.57;;;;;;;6.68;75.97;99447.09;4995610;28;20542;-70
2021/01/02 10:31:26;;;;;;;11.15;5.95;;;;;;;6.69;75.78;99459.78;5010584;28;20049;-70
2021/01/02 10:33:54;;;;;;;11.15;5.90;;;;;;;6.64;76.14;99456.38;5010475;28;20038;-70
2021/01/02 10:36:22;;;;;;;11.55;5.80;;;;;;;6.55;76.78;99458.78;4995378;28;20097;-70
2021/01/02 10:38:49;;;;;;;12.13;6.07;;;;;;;6.48;76.41;99454.47;4995554;28;20057;-70
2021/01/02 10:41:17;;;;;;;14.82;7.43;;;;;;;6.40;77.04;99453.56;4995453;28;20054;-70
2021/01/02 10:43:45;;;;;;;11.52;8.13;;;;;;;6.27;77.21;99456.75;4995307;28;20049;-70
2021/01/02 10:46:12;;;;;;;13.90;7.57;;;;;;;5.94;77.89;99414.13;4995404;28;20127;-70
2021/01/02 10:48:41;;;;;;;12.20;6.55;;;;;;;6.13;78.11;99450.66;4995316;28;20544;-70
2021/01/02 10:51:14;;;;;;;11.77;6.78;;;;;;;6.08;78.01;99452.28;4995358;28;20084;-70
2021/01/02 10:53:42;;;;;;;12.13;6.90;;;;;;;6.05;78.32;99448.03;4995494;28;20050;-71
2021/01/02 10:56:11;;;;;;;14.10;7.72;;;;;;;6.01;78.48;99446.31;4994917;28;20039;-70
2021/01/02 10:58:39;;;;;;;14.23;8.25;;;;;;;6.01;78.65;99445.44;4993858;28;20050;-70
2021/01/02 11:01:07;;;;;;;15.13;8.88;;;;;;;5.94;78.93;99431.00;4994967;28;20050;-70
2021/01/02 11:03:36;;;;;;;15.80;10.30;;;;;;;5.96;78.94;99437.78;4994917;28;20444;-71
2021/01/02 11:06:07;;;;;;;20.30;12.13;;;;;;;5.95;79.06;99435.25;4994913;28;20122;-70
2021/01/02 11:08:36;;;;;;;17.00;10.88;;;;;;;5.95;79.28;99433.53;4994734;28;20050;-70
2021/01/02 11:11:05;;;;;;;14.20;8.47;;;;;;;5.96;79.58;99431.84;4994893;28;20069;-70
2021/01/02 11:13:36;;;;;;;20.25;11.27;;;;;;;5.96;80.00;99426.78;4994599;28;20523;-70
2021/01/02 11:16:05;;;;;;;15.00;8.23;;;;;;;5.98;80.01;99425.13;4995125;28;20112;-70
2021/01/02 11:18:33;;;;;;;17.63;8.98;;;;;;;5.97;79.92;99411.59;4994659;28;20397;-70
2021/01/02 11:21:00;;;;;;;21.42;10.02;;;;;;;6.06;79.75;99414.28;4993492;28;20154;-70
2021/01/02 11:23:28;;;;;;;21.63;10.13;;;;;;;6.08;79.74;99411.75;4993461;28;20129;-70
2021/01/02 11:25:57;;;;;;;13.27;7.28;;;;;;;6.12;79.90;99407.59;4994807;28;20042;-70
2021/01/02 11:28:25;;;;;;;10.23;4.60;;;;;;;6.28;78.40;99396.81;4994455;28;20054;-70
2021/01/02 11:30:53;;;;;;;7.93;3.92;;;;;;;6.47;75.61;99386.91;4994343;28;20054;-70
2021/01/02 11:33:21;;;;;;;7.18;3.67;;;;;;;6.62;74.38;99391.28;4994725;28;20503;-70
2021/01/02 11:35:49;;;;;;;6.22;3.20;;;;;;;6.77;72.58;99388.06;4994502;28;20050;-71
2021/01/02 11:38:17;;;;;;;5.97;3.15;;;;;;;6.86;71.73;99396.59;4994278;28;20432;-70
2021/01/02 11:40:45;;;;;;;6.03;2.75;;;;;;;7.00;70.25;99384.88;4994120;28;20042;-71
2021/01/02 11:43:14;;;;;;;5.68;2.97;;;;;;;6.09;69.88;99231.09;4994261;28;20075;-71
2021/01/02 11:45:42;;;;;;;6.18;3.08;;;;;;;7.08;68.31;99380.69;5009412;28;20040;-71
2021/01/02 11:48:12;;;;;;;7.07;2.72;;;;;;;7.23;67.76;99378.28;4994568;28;20570;-71
2021/01/02 11:50:41;;;;;;;6.68;2.90;;;;;;;7.15;68.30;99374.00;4994227;28;20049;-71